Time;durP1;ratioP1;P1;durP2;ratioP2;P2;SDS_P1;SDS_P2;PMS_P1;PMS_P2;Temp;Humidity;BMP_temperature;BMP_pressure;BME280_temperature;BME280_humidity;BME280_pressure;Samples;Min_cycle;Max_cycle;Signal;HPM_P1;HPM_P2
2023/07/01 00:02:05;;;;;;;12.80;12.40;;;19.70;99.90;;;;;;4933828;29;20461;-72
2023/07/01 00:04:31;;;;;;;12.63;12.20;;;19.60;99.90;;;;;;4935386;29;20453;-72
2023/07/01 00:06:59;;;;;;;12.10;11.60;;;19.50;99.90;;;;;;4935600;29;21015;-72
2023/07/01 00:09:26;;;;;;;12.73;12.10;;;19.50;99.90;;;;;;4935414;29;20944;-72
2023/07/01 00:11:53;;;;;;;12.30;11.90;;;19.40;99.90;;;;;;4935479;29;20512;-72
2023/07/01 00:14:19;;;;;;;12.63;12.23;;;19.40;99.90;;;;;;4935429;29;20557;-72
2023/07/01 00:16:46;;;;;;;12.90;12.50;;;19.40;99.90;;;;;;4935294;29;20484;-72
2023/07/01 00:19:13;;;;;;;12.83;12.33;;;19.20;99.90;;;;;;4935180;29;20464;-72
2023/07/01 00:21:39;;;;;;;13.07;12.57;;;19.20;99.90;;;;;;4935525;29;20452;-73
2023/07/01 00:24:08;;;;;;;12.93;12.43;;;19.10;99.90;;;;;;4935248;29;20461;-72
2023/07/01 00:26:34;;;;;;;13.50;12.90;;;19.10;99.90;;;;;;4935167;29;20485;-73
2023/07/01 00:29:01;;;;;;;13.20;12.63;;;19.00;99.90;;;;;;4935172;29;20953;-73
2023/07/01 00:31:28;;;;;;;13.53;12.93;;;18.90;99.90;;;;;;4935010;29;20458;-73
2023/07/01 00:33:54;;;;;;;13.10;12.50;;;18.90;99.90;;;;;;4935213;29;20462;-73
2023/07/01 00:36:21;;;;;;;13.03;12.57;;;18.80;99.90;;;;;;4935107;29;20457;-72
2023/07/01 00:38:48;;;;;;;13.57;13.07;;;18.80;99.90;;;;;;4934975;29;20536;-73
2023/07/01 00:41:17;;;;;;;13.70;13.00;;;18.70;99.90;;;;;;4934860;29;20462;-73
2023/07/01 00:43:44;;;;;;;13.33;12.53;;;18.60;99.90;;;;;;4934912;29;20501;-73
2023/07/01 00:46:11;;;;;;;12.63;12.13;;;18.60;99.90;;;;;;4934846;29;20885;-72
2023/07/01 00:48:40;;;;;;;13.53;13.03;;;18.60;99.90;;;;;;4934904;29;20517;-72
2023/07/01 00:51:07;;;;;;;14.10;13.20;;;18.60;99.90;;;;;;4934960;29;20769;-73
2023/07/01 00:53:34;;;;;;;13.50;13.00;;;18.50;99.90;;;;;;4934771;29;20520;-73
2023/07/01 00:56:01;;;;;;;13.30;12.80;;;18.50;99.90;;;;;;4934641;29;20505;-72
2023/07/01 00:58:29;;;;;;;13.47;12.67;;;18.40;99.90;;;;;;4934575;29;20487;-72
2023/07/01 01:00:57;;;;;;;13.20;12.70;;;18.40;99.90;;;;;;4934695;29;21015;-71
2023/07/01 01:03:33;;;;;;;12.90;12.40;;;18.30;99.90;;;;;;4934672;29;20453;-72
2023/07/01 01:06:05;;;;;;;13.20;12.60;;;18.20;99.90;;;;;;4915717;29;20526;-72
2023/07/01 01:08:40;;;;;;;14.93;14.13;;;18.00;99.90;;;;;;4915637;29;20464;-72
2023/07/01 01:11:08;;;;;;;13.13;12.63;;;18.00;99.90;;;;;;4915574;29;20545;-71
2023/07/01 01:13:37;;;;;;;13.13;12.63;;;18.00;99.90;;;;;;4915260;29;20474;-72
2023/07/01 01:16:04;;;;;;;13.27;12.77;;;17.90;99.90;;;;;;4915178;29;20542;-72
2023/07/01 01:18:33;;;;;;;13.63;12.97;;;17.80;99.90;;;;;;4915366;29;20514;-72
2023/07/01 01:21:01;;;;;;;13.07;12.47;;;17.80;99.90;;;;;;4914606;29;20458;-72
2023/07/01 01:23:34;;;;;;;12.93;12.43;;;17.80;99.90;;;;;;4915150;29;21004;-73
2023/07/01 01:26:06;;;;;;;13.90;12.83;;;17.70;99.90;;;;;;4915128;29;20490;-73
2023/07/01 01:28:36;;;;;;;14.70;14.03;;;17.60;99.90;;;;;;4915159;29;20545;-72
2023/07/01 01:31:03;;;;;;;13.40;12.70;;;17.50;99.90;;;;;;4915094;29;20462;-72
2023/07/01 01:33:29;;;;;;;13.50;12.97;;;17.40;99.90;;;;;;4915025;29;20489;-73
2023/07/01 01:36:05;;;;;;;13.73;12.97;;;17.30;99.90;;;;;;4915126;29;20450;-72
2023/07/01 01:38:34;;;;;;;14.43;13.77;;;17.20;99.90;;;;;;4915023;29;20521;-72
2023/07/01 01:41:06;;;;;;;13.93;13.43;;;17.20;99.90;;;;;;4914961;29;20518;-73
2023/07/01 01:43:42;;;;;;;13.83;13.23;;;17.20;99.90;;;;;;4914891;29;20959;-73
2023/07/01 01:46:10;;;;;;;14.57;13.93;;;17.10;99.90;;;;;;4914921;29;20868;-73
2023/07/01 01:48:38;;;;;;;14.47;13.77;;;17.00;99.90;;;;;;4914736;29;20462;-73
2023/07/01 01:51:05;;;;;;;14.13;13.53;;;17.00;99.90;;;;;;4914781;29;20459;-72
2023/07/01 01:53:34;;;;;;;14.60;14.00;;;17.00;99.90;;;;;;4914898;29;20515;-72
2023/07/01 01:56:02;;;;;;;14.60;14.00;;;16.90;99.90;;;;;;4914626;29;20450;-72
2023/07/01 01:58:29;;;;;;;13.27;12.77;;;16.90;99.90;;;;;;4914653;29;20481;-73
2023/07/01 02:00:57;;;;;;;13.17;12.50;;;17.00;99.90;;;;;;4914906;29;20461;-72
2023/07/01 02:03:24;;;;;;;13.13;12.63;;;17.10;99.90;;;;;;4914790;29;20450;-73
2023/07/01 02:05:51;;;;;;;13.60;13.10;;;17.10;99.90;;;;;;4914572;29;20490;-72
2023/07/01 02:08:18;;;;;;;14.07;13.40;;;17.10;99.90;;;;;;4914600;29;20506;-73
2023/07/01 02:10:45;;;;;;;13.20;12.70;;;17.00;99.90;;;;;;4914603;29;20522;-72
2023/07/01 02:13:11;;;;;;;14.60;14.10;;;17.00;99.90;;;;;;4914685;29;20465;-73
2023/07/01 02:15:38;;;;;;;14.67;14.07;;;16.90;99.90;;;;;;4914499;29;20485;-73
2023/07/01 02:18:06;;;;;;;14.90;14.13;;;16.80;99.90;;;;;;4914508;29;20458;-73
2023/07/01 02:20:32;;;;;;;15.03;14.43;;;16.70;99.90;;;;;;4914563;29;20458;-73
2023/07/01 02:22:59;;;;;;;15.53;14.83;;;16.70;99.90;;;;;;4914528;29;20919;-72
2023/07/01 02:25:26;;;;;;;15.37;14.77;;;16.60;99.90;;;;;;4914438;29;20540;-72
2023/07/01 02:27:53;;;;;;;15.30;14.70;;;16.50;99.90;;;;;;4914692;29;20533;-72
2023/07/01 02:30:20;;;;;;;15.90;15.10;;;16.30;99.90;;;;;;4914412;29;20458;-73
2023/07/01 02:32:46;;;;;;;16.10;15.43;;;16.20;99.90;;;;;;4914368;29;20504;-72
2023/07/01 02:35:14;;;;;;;15.00;14.50;;;16.20;99.90;;;;;;4918378;29;20557;-72
2023/07/01 02:37:41;;;;;;;16.10;15.40;;;16.00;99.90;;;;;;4918301;29;20454;-72
2023/07/01 02:40:09;;;;;;;16.13;15.53;;;16.00;99.90;;;;;;4918306;29;20819;-72
2023/07/01 02:42:36;;;;;;;15.07;14.37;;;15.90;99.90;;;;;;4918058;29;20461;-73
2023/07/01 02:45:04;;;;;;;15.80;15.20;;;15.90;99.90;;;;;;4918137;29;20458;-73
2023/07/01 02:47:31;;;;;;;15.43;14.80;;;15.80;99.90;;;;;;4917857;29;20584;-73
2023/07/01 02:49:58;;;;;;;16.53;15.87;;;15.70;99.90;;;;;;4917958;29;20490;-73
2023/07/01 02:52:26;;;;;;;15.30;14.80;;;15.70;99.90;;;;;;4917992;29;20549;-73
2023/07/01 02:54:52;;;;;;;15.70;15.00;;;15.70;99.90;;;;;;4917987;29;20458;-72
2023/07/01 02:57:19;;;;;;;15.37;14.77;;;15.80;99.90;;;;;;4917777;29;20498;-73
2023/07/01 02:59:48;;;;;;;16.10;15.40;;;15.70;99.90;;;;;;4917716;29;20482;-72
2023/07/01 03:02:15;;;;;;;15.60;14.93;;;15.60;99.90;;;;;;4917710;29;21019;-72
2023/07/01 03:04:42;;;;;;;15.80;15.20;;;15.70;99.90;;;;;;4917759;29;20517;-72
2023/07/01 03:07:09;;;;;;;15.30;14.70;;;15.70;99.90;;;;;;4917705;29;20489;-74
2023/07/01 03:09:37;;;;;;;16.60;15.80;;;15.70;99.90;;;;;;4917612;29;20502;-72
2023/07/01 03:12:05;;;;;;;15.70;15.13;;;15.80;99.90;;;;;;4917594;29;20462;-72
2023/07/01 03:14:31;;;;;;;15.67;14.97;;;15.80;99.90;;;;;;4917125;29;20481;-72
2023/07/01 03:16:58;;;;;;;16.80;16.07;;;15.90;99.90;;;;;;4917489;29;20505;-72
2023/07/01 03:19:25;;;;;;;16.23;15.40;;;15.90;99.90;;;;;;4917476;29;20517;-72
2023/07/01 03:21:51;;;;;;;15.87;15.07;;;16.00;99.90;;;;;;4917387;29;20458;-72
2023/07/01 03:24:18;;;;;;;15.80;15.20;;;16.00;99.90;;;;;;4917531;29;20450;-72
2023/07/01 03:26:46;;;;;;;15.53;14.90;;;16.00;99.90;;;;;;4917313;29;20501;-72
2023/07/01 03:29:13;;;;;;;15.50;14.90;;;16.10;99.90;;;;;;4917372;29;20533;-72
2023/07/01 03:31:40;;;;;;;15.80;15.20;;;16.10;99.90;;;;;;4917367;29;20459;-72
2023/07/01 03:34:07;;;;;;;15.27;14.67;;;16.10;99.90;;;;;;4917416;29;20454;-73
2023/07/01 03:36:33;;;;;;;15.73;15.13;;;16.10;99.90;;;;;;4917300;29;20462;-73
2023/07/01 03:39:01;;;;;;;15.40;14.70;;;16.10;99.90;;;;;;4917063;29;20462;-72
2023/07/01 03:41:28;;;;;;;15.33;14.73;;;16.10;99.90;;;;;;4916889;29;20458;-74
2023/07/01 03:43:56;;;;;;;14.37;13.87;;;16.20;99.90;;;;;;4916441;29;20941;-72
2023/07/01 03:46:23;;;;;;;15.27;14.53;;;16.20;99.90;;;;;;4916858;29;20513;-72
2023/07/01 03:48:50;;;;;;;14.90;14.27;;;16.20;99.90;;;;;;4917026;29;20557;-72
2023/07/01 03:51:16;;;;;;;15.63;15.03;;;16.20;99.90;;;;;;4916958;29;20454;-72
2023/07/01 03:53:43;;;;;;;15.03;14.43;;;16.20;99.90;;;;;;4916713;29;20470;-73
2023/07/01 03:56:10;;;;;;;16.10;15.37;;;16.30;99.90;;;;;;4916876;29;20462;-72
2023/07/01 03:58:36;;;;;;;16.37;15.57;;;16.30;99.90;;;;;;4916790;29;20487;-72
2023/07/01 04:01:05;;;;;;;15.60;14.70;;;16.30;99.90;;;;;;4916533;29;20533;-73
2023/07/01 04:03:33;;;;;;;15.40;14.70;;;16.30;99.90;;;;;;4916654;29;20549;-72
2023/07/01 04:06:00;;;;;;;15.70;15.03;;;16.40;99.90;;;;;;4916417;29;20513;-72
2023/07/01 04:08:28;;;;;;;15.70;15.10;;;16.40;99.90;;;;;;4916451;29;20963;-73
2023/07/01 04:10:55;;;;;;;15.57;14.97;;;16.40;99.90;;;;;;4916585;29;20489;-73
2023/07/01 04:13:21;;;;;;;15.90;15.30;;;16.50;99.90;;;;;;4916553;29;20514;-72
2023/07/01 04:15:48;;;;;;;15.10;14.53;;;16.50;99.90;;;;;;4916323;29;20493;-72
2023/07/01 04:18:16;;;;;;;16.80;16.00;;;16.50;99.90;;;;;;4911232;29;20490;-73
2023/07/01 04:20:43;;;;;;;16.97;16.10;;;16.50;99.90;;;;;;4915696;29;20945;-73
2023/07/01 04:23:10;;;;;;;16.07;15.47;;;16.50;99.90;;;;;;4915897;29;20466;-72
2023/07/01 04:25:36;;;;;;;15.50;14.80;;;16.60;99.90;;;;;;4916021;29;20465;-73
2023/07/01 04:28:04;;;;;;;15.47;14.70;;;16.90;99.90;;;;;;4915586;29;20525;-73
2023/07/01 04:30:31;;;;;;;14.60;13.90;;;17.30;99.90;;;;;;4915707;29;20486;-73
2023/07/01 04:32:57;;;;;;;14.53;13.93;;;17.70;99.90;;;;;;4915394;29;21016;-72
2023/07/01 04:35:25;;;;;;;14.20;13.50;;;18.00;99.90;;;;;;4915956;29;20877;-71
2023/07/01 04:37:52;;;;;;;13.40;12.90;;;18.40;99.90;;;;;;4916181;29;20454;-72
2023/07/01 04:40:19;;;;;;;14.00;13.40;;;18.60;99.90;;;;;;4915720;29;20489;-71
2023/07/01 04:42:47;;;;;;;13.70;13.10;;;18.80;99.90;;;;;;4915751;29;20682;-72
2023/07/01 04:45:14;;;;;;;13.33;12.83;;;19.00;99.90;;;;;;4915906;29;20466;-72
2023/07/01 04:47:40;;;;;;;13.20;12.70;;;19.40;99.90;;;;;;4915947;29;20866;-72
2023/07/01 04:50:08;;;;;;;13.27;12.80;;;19.60;99.90;;;;;;4916058;29;20827;-72
2023/07/01 04:52:36;;;;;;;13.60;13.00;;;19.90;99.90;;;;;;4915943;29;20600;-72
2023/07/01 04:55:03;;;;;;;13.50;13.00;;;20.10;99.90;;;;;;4915624;29;21058;-73
2023/07/01 04:57:52;;;;;;;12.90;12.50;;;20.30;99.90;;;;;;4914899;29;20454;-75
2023/07/01 05:00:21;;;;;;;13.43;12.90;;;20.70;99.90;;;;;;4913574;29;20561;-75
2023/07/01 05:02:47;;;;;;;13.77;13.27;;;21.10;99.90;;;;;;4915005;29;20473;-76
2023/07/01 05:05:14;;;;;;;14.90;14.30;;;21.20;99.90;;;;;;4914617;29;20525;-75
2023/07/01 05:07:42;;;;;;;13.40;13.00;;;21.40;99.90;;;;;;4913837;29;20486;-75
2023/07/01 05:10:09;;;;;;;13.80;13.30;;;21.60;99.90;;;;;;4914883;29;20490;-75
2023/07/01 05:12:36;;;;;;;13.67;13.17;;;21.60;99.90;;;;;;4915316;29;20466;-75
2023/07/01 05:15:03;;;;;;;13.37;12.87;;;21.60;99.90;;;;;;4914941;29;20493;-75
2023/07/01 05:17:30;;;;;;;13.07;12.47;;;21.60;99.90;;;;;;4915211;29;21008;-76
2023/07/01 05:19:56;;;;;;;13.20;12.70;;;21.50;99.90;;;;;;4915196;29;20461;-76
2023/07/01 05:22:23;;;;;;;13.10;12.57;;;21.90;99.90;;;;;;4915248;29;20458;-75
2023/07/01 05:24:51;;;;;;;12.67;12.13;;;22.30;99.90;;;;;;4915067;29;20462;-75
2023/07/01 05:27:18;;;;;;;13.47;12.93;;;22.30;99.90;;;;;;4915049;29;20542;-76
2023/07/01 05:29:44;;;;;;;14.00;13.40;;;22.80;99.90;;;;;;4915040;29;20462;-76
2023/07/01 05:32:11;;;;;;;13.50;12.97;;;23.20;99.90;;;;;;4915169;29;20872;-76
2023/07/01 05:34:38;;;;;;;13.13;12.30;;;23.50;98.70;;;;;;4915085;29;20860;-75
2023/07/01 05:37:05;;;;;;;13.60;12.90;;;24.00;97.20;;;;;;4914993;29;20949;-76
2023/07/01 05:39:31;;;;;;;13.87;13.30;;;24.50;95.30;;;;;;4914714;29;20454;-76
2023/07/01 05:41:59;;;;;;;13.30;12.80;;;24.70;94.10;;;;;;4914658;29;20871;-76
2023/07/01 05:44:26;;;;;;;13.67;13.07;;;25.10;92.80;;;;;;4914856;29;20459;-76
2023/07/01 05:46:53;;;;;;;12.97;12.47;;;25.90;91.70;;;;;;4914748;29;20493;-77
2023/07/01 05:49:19;;;;;;;12.87;12.37;;;26.10;90.60;;;;;;4914682;29;20458;-76
2023/07/01 05:51:46;;;;;;;12.73;12.33;;;25.80;88.60;;;;;;4914607;29;20514;-76
2023/07/01 05:54:13;;;;;;;13.17;12.67;;;25.70;88.60;;;;;;4914456;29;20849;-76
2023/07/01 05:56:39;;;;;;;14.07;13.43;;;25.60;86.10;;;;;;4914913;29;20953;-76
2023/07/01 05:59:07;;;;;;;12.60;12.20;;;25.10;87.90;;;;;;4914903;29;20465;-79
2023/07/01 06:01:34;;;;;;;12.33;11.83;;;25.50;88.30;;;;;;4909626;29;20482;-77
2023/07/01 06:04:01;;;;;;;13.03;12.53;;;26.00;86.60;;;;;;4914644;29;20492;-76
2023/07/01 06:06:28;;;;;;;13.57;13.07;;;26.30;84.10;;;;;;4914640;29;20477;-77
2023/07/01 06:08:54;;;;;;;13.77;13.03;;;26.10;84.60;;;;;;4914464;29;20458;-77
2023/07/01 06:11:21;;;;;;;13.83;13.33;;;26.30;82.30;;;;;;4914899;29;20462;-73
2023/07/01 06:13:48;;;;;;;13.60;13.10;;;26.50;82.60;;;;;;4914548;29;20992;-73
2023/07/01 06:16:17;;;;;;;13.23;12.73;;;26.60;82.80;;;;;;4914368;29;20878;-74
2023/07/01 06:18:43;;;;;;;12.90;12.50;;;27.10;81.40;;;;;;4914552;29;20506;-73
2023/07/01 06:21:10;;;;;;;13.80;13.30;;;27.30;80.70;;;;;;4914661;29;20458;-74
2023/07/01 06:23:37;;;;;;;12.90;12.33;;;27.50;79.30;;;;;;4929094;29;20453;-73
2023/07/01 06:26:05;;;;;;;13.77;13.27;;;27.30;78.80;;;;;;4932471;29;20454;-74
2023/07/01 06:28:32;;;;;;;13.43;12.93;;;27.30;77.00;;;;;;4932622;29;20485;-73
2023/07/01 06:30:59;;;;;;;13.10;12.60;;;27.40;76.70;;;;;;4932633;29;20442;-73
2023/07/01 06:33:27;;;;;;;13.50;13.00;;;27.50;76.30;;;;;;4932548;29;20497;-74
2023/07/01 06:35:54;;;;;;;13.50;13.03;;;27.90;74.50;;;;;;4932809;29;20445;-74
2023/07/01 06:38:20;;;;;;;13.60;13.10;;;27.80;74.70;;;;;;4932893;29;20442;-74
2023/07/01 06:40:47;;;;;;;12.90;12.30;;;28.40;72.00;;;;;;4932705;29;20875;-74
2023/07/01 06:43:14;;;;;;;13.77;13.23;;;28.40;71.50;;;;;;4932692;29;20457;-74
2023/07/01 06:45:41;;;;;;;13.50;12.87;;;28.60;70.50;;;;;;4932968;29;20449;-74
2023/07/01 06:48:08;;;;;;;13.77;13.27;;;29.20;68.50;;;;;;4932655;29;20481;-75
2023/07/01 06:50:36;;;;;;;13.10;12.50;;;29.30;65.40;;;;;;4932692;29;20453;-74
2023/07/01 06:53:03;;;;;;;13.50;13.00;;;29.00;66.70;;;;;;4932572;29;20460;-75
2023/07/01 06:55:29;;;;;;;13.53;13.03;;;28.90;66.30;;;;;;4929989;29;20478;-74
2023/07/01 06:57:56;;;;;;;14.07;13.57;;;28.70;67.00;;;;;;4932675;29;21212;-74
2023/07/01 07:00:23;;;;;;;13.40;12.67;;;28.90;67.40;;;;;;4932855;29;20827;-74
2023/07/01 07:02:50;;;;;;;12.90;12.50;;;29.00;63.90;;;;;;4924992;29;20479;-74
2023/07/01 07:05:16;;;;;;;13.20;12.53;;;28.80;65.10;;;;;;4932086;29;20454;-74
2023/07/01 07:07:45;;;;;;;13.00;12.43;;;29.40;63.90;;;;;;4932002;29;20485;-73
2023/07/01 07:10:12;;;;;;;12.90;12.50;;;29.50;62.00;;;;;;4929927;29;20461;-74
2023/07/01 07:12:38;;;;;;;12.70;12.30;;;29.70;62.00;;;;;;4932490;29;20504;-74
2023/07/01 07:15:06;;;;;;;13.67;13.07;;;29.50;62.50;;;;;;4932306;29;20501;-75
2023/07/01 07:17:34;;;;;;;13.20;12.80;;;29.70;61.40;;;;;;4932459;29;20448;-74
2023/07/01 07:20:01;;;;;;;12.50;12.00;;;29.70;61.70;;;;;;4934181;29;20461;-74
2023/07/01 07:22:27;;;;;;;12.43;12.03;;;30.10;61.60;;;;;;4935836;29;21003;-74
2023/07/01 07:24:56;;;;;;;13.97;13.10;;;30.60;60.20;;;;;;4935938;29;20442;-75
2023/07/01 07:27:23;;;;;;;13.10;12.70;;;30.50;59.70;;;;;;4935672;29;20492;-75
2023/07/01 07:29:50;;;;;;;12.17;11.77;;;30.60;59.50;;;;;;4933361;29;20445;-74
2023/07/01 07:32:17;;;;;;;12.70;12.20;;;30.50;59.20;;;;;;4935630;29;20944;-74
2023/07/01 07:34:44;;;;;;;13.90;13.30;;;30.50;59.70;;;;;;4935729;29;20865;-74
2023/07/01 07:37:11;;;;;;;13.83;13.20;;;30.60;59.30;;;;;;4933258;29;20856;-74
2023/07/01 07:39:38;;;;;;;12.63;12.13;;;31.40;57.40;;;;;;4935374;29;20481;-73
2023/07/01 07:42:06;;;;;;;13.23;12.83;;;30.90;57.90;;;;;;4935589;29;20461;-74
2023/07/01 07:44:33;;;;;;;13.30;12.90;;;30.90;58.60;;;;;;4935773;29;20465;-74
2023/07/01 07:47:00;;;;;;;13.10;12.70;;;31.50;57.50;;;;;;4935514;29;20512;-74
2023/07/01 07:49:27;;;;;;;12.67;12.27;;;31.50;55.00;;;;;;4935501;29;20618;-74
2023/07/01 07:51:53;;;;;;;13.00;12.50;;;31.10;55.50;;;;;;4935602;29;20464;-74
2023/07/01 07:54:20;;;;;;;11.40;11.10;;;30.70;57.60;;;;;;4935300;29;20457;-74
2023/07/01 07:56:47;;;;;;;13.07;12.57;;;30.20;56.50;;;;;;4935510;29;20473;-74
2023/07/01 07:59:15;;;;;;;11.40;11.00;;;30.80;57.00;;;;;;4935566;29;20940;-74
2023/07/01 08:01:42;;;;;;;12.43;11.80;;;31.40;55.80;;;;;;4930478;29;20489;-75
2023/07/01 08:04:08;;;;;;;12.70;12.20;;;31.40;55.30;;;;;;4935461;29;20461;-74
2023/07/01 08:06:35;;;;;;;12.90;12.40;;;31.50;55.60;;;;;;4935702;29;20457;-75
2023/07/01 08:09:02;;;;;;;12.23;11.83;;;31.00;56.60;;;;;;4935313;29;20485;-74
2023/07/01 08:11:28;;;;;;;12.67;12.27;;;30.80;56.70;;;;;;4934572;29;20501;-74
2023/07/01 08:13:55;;;;;;;12.43;12.03;;;31.20;57.20;;;;;;4934560;29;20476;-74
2023/07/01 08:16:23;;;;;;;12.63;12.23;;;31.00;55.50;;;;;;4934772;29;20544;-73
2023/07/01 08:18:50;;;;;;;12.60;12.13;;;31.00;56.00;;;;;;4934719;29;20445;-74
2023/07/01 08:21:17;;;;;;;12.73;12.23;;;31.60;55.60;;;;;;4934736;29;20862;-74
2023/07/01 08:23:43;;;;;;;12.40;12.00;;;31.70;55.40;;;;;;4934947;29;20529;-73
2023/07/01 08:26:10;;;;;;;13.33;12.80;;;31.30;56.00;;;;;;4934776;29;21256;-72
2023/07/01 08:28:37;;;;;;;13.97;13.20;;;30.30;57.20;;;;;;4934757;29;20544;-73
2023/07/01 08:31:04;;;;;;;12.77;12.30;;;30.30;58.00;;;;;;4934635;29;20504;-73
2023/07/01 08:33:32;;;;;;;12.50;12.10;;;30.80;57.90;;;;;;4934536;29;20454;-72
2023/07/01 08:35:59;;;;;;;13.50;13.00;;;31.40;57.30;;;;;;4934715;29;20848;-71
2023/07/01 08:38:28;;;;;;;13.20;12.70;;;31.90;56.00;;;;;;4934609;29;20493;-74
2023/07/01 08:40:58;;;;;;;13.00;12.50;;;31.60;56.90;;;;;;4932420;29;20553;-75
2023/07/01 08:43:25;;;;;;;12.60;12.10;;;31.10;58.20;;;;;;4934496;29;20449;-75
2023/07/01 08:45:53;;;;;;;12.40;11.90;;;30.80;58.70;;;;;;4931977;29;20529;-75
2023/07/01 08:48:22;;;;;;;12.63;12.13;;;30.80;58.90;;;;;;4934317;29;20576;-75
2023/07/01 08:50:59;;;;;;;12.40;11.67;;;30.90;58.40;;;;;;4934813;29;20461;-75
2023/07/01 08:53:27;;;;;;;12.33;11.83;;;30.30;58.00;;;;;;4934947;29;20953;-75
2023/07/01 08:55:54;;;;;;;11.40;11.00;;;29.20;59.50;;;;;;4935001;29;20457;-74
2023/07/01 08:58:22;;;;;;;11.40;11.00;;;28.70;62.50;;;;;;4934964;29;20449;-75
2023/07/01 09:00:49;;;;;;;11.80;11.40;;;29.20;60.00;;;;;;4934749;29;20462;-76
2023/07/01 09:03:16;;;;;;;12.00;11.50;;;29.70;60.10;;;;;;4934605;29;20515;-75
2023/07/01 09:05:43;;;;;;;12.17;11.67;;;30.20;59.00;;;;;;4934358;29;20449;-74
2023/07/01 09:08:11;;;;;;;12.00;11.50;;;29.90;59.90;;;;;;4934075;29;20481;-74
2023/07/01 09:10:38;;;;;;;12.00;11.60;;;30.20;58.40;;;;;;4933979;29;20453;-74
2023/07/01 09:13:11;;;;;;;11.87;11.47;;;30.60;57.50;;;;;;4934148;29;21058;-74
2023/07/01 09:15:46;;;;;;;11.60;11.20;;;31.40;55.60;;;;;;4933928;29;20572;-75
2023/07/01 09:18:21;;;;;;;11.67;11.27;;;30.50;55.30;;;;;;4933912;29;20520;-74
2023/07/01 09:20:49;;;;;;;13.50;13.00;;;30.40;55.40;;;;;;4932516;29;20571;-74
2023/07/01 09:23:31;;;;;;;11.43;11.03;;;30.40;55.30;;;;;;4933750;29;20477;-74
2023/07/01 09:26:14;;;;;;;11.37;10.97;;;30.80;53.90;;;;;;4933832;29;20493;-75
2023/07/01 09:28:42;;;;;;;11.50;11.10;;;30.90;53.10;;;;;;4931397;29;20851;-74
2023/07/01 09:31:10;;;;;;;11.10;10.70;;;30.80;52.60;;;;;;4933828;29;20503;-74
2023/07/01 09:33:37;;;;;;;11.27;10.87;;;30.80;52.10;;;;;;4933417;29;20438;-74
2023/07/01 09:36:05;;;;;;;11.67;11.27;;;30.80;51.60;;;;;;4933469;29;20540;-74
2023/07/01 09:38:35;;;;;;;12.00;11.60;;;31.50;50.70;;;;;;4933496;29;20517;-74
2023/07/01 09:41:15;;;;;;;11.90;11.50;;;31.50;50.80;;;;;;4931576;29;20456;-74
2023/07/01 09:43:42;;;;;;;12.47;11.87;;;31.60;50.20;;;;;;4931387;29;20852;-73
2023/07/01 09:46:09;;;;;;;11.77;11.37;;;31.60;50.80;;;;;;4934147;29;20461;-74
2023/07/01 09:48:36;;;;;;;12.33;11.93;;;31.20;50.90;;;;;;4934006;29;20497;-71
2023/07/01 09:51:06;;;;;;;12.10;11.60;;;31.40;51.30;;;;;;4933942;29;20450;-72
2023/07/01 09:53:35;;;;;;;11.83;11.33;;;31.90;49.70;;;;;;4928671;29;20453;-75
2023/07/01 09:56:03;;;;;;;12.07;11.67;;;32.40;48.80;;;;;;4933987;29;20465;-75
2023/07/01 09:58:30;;;;;;;12.17;11.77;;;32.20;48.60;;;;;;4934186;29;20508;-76
2023/07/01 10:00:58;;;;;;;12.47;12.07;;;31.50;48.30;;;;;;4933864;29;20461;-75
2023/07/01 10:03:25;;;;;;;13.00;12.50;;;30.60;48.50;;;;;;4933480;29;20536;-75
2023/07/01 10:05:52;;;;;;;12.77;12.30;;;30.70;47.60;;;;;;4934137;29;20471;-75
2023/07/01 10:08:19;;;;;;;12.77;12.27;;;31.10;48.20;;;;;;4933928;29;20485;-75
2023/07/01 10:10:57;;;;;;;11.60;11.17;;;31.50;47.20;;;;;;4933850;29;20456;-75
2023/07/01 10:13:25;;;;;;;12.33;11.90;;;31.60;45.00;;;;;;4933892;29;20477;-75
2023/07/01 10:15:52;;;;;;;13.13;12.63;;;31.30;45.50;;;;;;4933608;29;21003;-75
2023/07/01 10:18:22;;;;;;;13.10;12.40;;;31.70;45.40;;;;;;4933745;29;20457;-75
2023/07/01 10:20:49;;;;;;;12.57;12.00;;;31.80;44.20;;;;;;4933409;29;20461;-75
2023/07/01 10:23:16;;;;;;;12.70;12.30;;;32.00;44.60;;;;;;4932916;29;20477;-75
2023/07/01 10:25:43;;;;;;;12.67;12.13;;;32.30;42.60;;;;;;4933166;29;20505;-75
2023/07/01 10:28:12;;;;;;;12.60;12.13;;;32.70;42.80;;;;;;4930802;29;20489;-76
2023/07/01 10:31:10;;;;;;;13.73;12.87;;;32.30;42.50;;;;;;4932774;29;20469;-76
2023/07/01 10:33:57;;;;;;;13.97;12.73;;;32.10;44.00;;;;;;4932589;29;20861;-76
2023/07/01 10:36:24;;;;;;;13.23;12.73;;;31.10;44.30;;;;;;4930842;29;20453;-76
2023/07/01 10:38:51;;;;;;;12.70;12.00;;;31.60;44.50;;;;;;4932911;29;20461;-73
2023/07/01 10:41:51;;;;;;;12.97;12.47;;;32.40;44.40;;;;;;4933160;29;20449;-73
2023/07/01 10:44:24;;;;;;;11.63;11.23;;;33.00;43.20;;;;;;4931630;29;20532;-76
2023/07/01 10:47:16;;;;;;;12.50;12.10;;;32.80;43.80;;;;;;4930749;29;20536;-76
2023/07/01 10:50:06;;;;;;;13.00;12.57;;;33.30;43.00;;;;;;4932011;29;20549;-76
2023/07/01 10:52:53;;;;;;;13.40;12.90;;;32.60;43.60;;;;;;4930733;29;20445;-76
2023/07/01 10:55:40;;;;;;;13.03;12.40;;;33.10;42.90;;;;;;4933898;29;20497;-76
2023/07/01 10:58:21;;;;;;;12.70;12.30;;;33.60;42.40;;;;;;4936266;29;20456;-76
2023/07/01 11:00:49;;;;;;;12.83;12.43;;;34.50;41.70;;;;;;4936609;29;20552;-76
2023/07/01 11:03:55;;;;;;;12.80;12.30;;;33.40;41.40;;;;;;4936292;29;20504;-76
2023/07/01 11:06:22;;;;;;;12.80;12.40;;;32.50;43.40;;;;;;4910866;29;20473;-76
2023/07/01 11:08:51;;;;;;;13.70;13.00;;;32.60;42.30;;;;;;4933386;29;20485;-73
2023/07/01 11:11:26;;;;;;;13.30;12.60;;;32.30;41.60;;;;;;4936163;29;20929;-76
2023/07/01 11:14:01;;;;;;;13.40;12.70;;;32.10;42.00;;;;;;4934068;29;20528;-73
2023/07/01 11:16:30;;;;;;;13.03;12.53;;;32.40;41.60;;;;;;4936119;29;20473;-73
2023/07/01 11:19:00;;;;;;;14.70;14.10;;;32.80;41.20;;;;;;4936608;29;20447;-73
2023/07/01 11:21:28;;;;;;;13.90;13.20;;;33.10;40.30;;;;;;4936566;29;20445;-74
2023/07/01 11:23:56;;;;;;;12.93;12.43;;;32.50;40.70;;;;;;4936445;29;20461;-74
2023/07/01 11:26:24;;;;;;;13.80;13.20;;;31.90;41.70;;;;;;4936567;29;20457;-74
2023/07/01 11:28:52;;;;;;;12.67;12.17;;;31.10;41.80;;;;;;4936423;29;20495;-74
2023/07/01 11:31:20;;;;;;;13.80;13.30;;;30.70;43.10;;;;;;4936411;29;20457;-73
2023/07/01 11:33:49;;;;;;;13.17;12.57;;;31.00;45.00;;;;;;4936258;29;20457;-73
2023/07/01 11:36:18;;;;;;;13.13;12.53;;;31.00;45.00;;;;;;4936356;29;20520;-73
2023/07/01 11:38:45;;;;;;;13.10;12.50;;;30.90;45.20;;;;;;4935917;29;20465;-73
2023/07/01 11:41:17;;;;;;;13.43;12.77;;;30.90;45.60;;;;;;4933302;29;20924;-73
2023/07/01 11:43:44;;;;;;;12.50;12.00;;;30.70;45.80;;;;;;4935598;29;20450;-74
2023/07/01 11:46:12;;;;;;;12.83;12.33;;;30.80;46.50;;;;;;4935672;29;20449;-73
2023/07/01 11:48:40;;;;;;;13.23;12.63;;;30.70;46.50;;;;;;4935658;29;20486;-74
2023/07/01 11:51:08;;;;;;;13.37;12.63;;;30.50;46.80;;;;;;4935616;29;20892;-73
2023/07/01 11:53:37;;;;;;;12.60;12.00;;;29.70;47.00;;;;;;4935287;29;20932;-74
2023/07/01 11:56:05;;;;;;;12.93;12.37;;;29.10;48.00;;;;;;4935371;29;20549;-74
2023/07/01 11:58:34;;;;;;;12.13;11.60;;;29.10;49.70;;;;;;4932889;29;20843;-74
2023/07/01 12:01:01;;;;;;;13.63;12.93;;;29.70;48.70;;;;;;4935382;29;20544;-74
2023/07/01 12:03:32;;;;;;;12.13;11.73;;;29.90;47.90;;;;;;4935255;29;20453;-74
2023/07/01 12:05:59;;;;;;;13.00;12.30;;;29.90;48.40;;;;;;4934905;29;20537;-74
2023/07/01 12:08:51;;;;;;;13.23;12.73;;;30.20;48.70;;;;;;4934994;29;20956;-74
2023/07/01 12:11:18;;;;;;;13.30;12.73;;;29.80;49.10;;;;;;4933618;29;20540;-75
2023/07/01 12:13:44;;;;;;;12.63;12.13;;;29.70;49.50;;;;;;4935594;29;20481;-75
2023/07/01 12:16:11;;;;;;;12.90;12.30;;;29.40;49.80;;;;;;4935551;29;20481;-74
2023/07/01 12:18:38;;;;;;;12.53;11.93;;;29.50;49.80;;;;;;4935780;29;20461;-76
2023/07/01 12:21:05;;;;;;;13.20;12.70;;;29.30;49.30;;;;;;4935536;29;20975;-75
2023/07/01 12:23:40;;;;;;;12.50;12.00;;;29.20;50.50;;;;;;4935557;29;20885;-75
2023/07/01 12:26:06;;;;;;;12.73;12.20;;;29.20;51.00;;;;;;4935734;29;20733;-76
2023/07/01 12:28:33;;;;;;;12.33;11.93;;;28.80;51.80;;;;;;4935263;29;20453;-76
2023/07/01 12:31:00;;;;;;;13.23;12.63;;;28.60;52.40;;;;;;4935355;29;20457;-76
2023/07/01 12:33:26;;;;;;;12.93;12.43;;;28.50;52.90;;;;;;4935231;29;20457;-74
2023/07/01 12:35:56;;;;;;;11.60;11.20;;;28.40;53.40;;;;;;4935566;29;20503;-75